sensor_id;sensor_type;location;lat;lon;timestamp;P1;durP1;ratioP1;P2;durP2;ratioP2
27794;SDS011;15176;50.844;4.412;2022-12-18T00:00:41;49.35;;;26.35;;
27794;SDS011;15176;50.844;4.412;2022-12-18T00:03:08;38.50;;;20.45;;
27794;SDS011;15176;50.844;4.412;2022-12-18T00:05:34;36.13;;;18.73;;
27794;SDS011;15176;50.844;4.412;2022-12-18T00:08:00;33.92;;;18.73;;
27794;SDS011;15176;50.844;4.412;2022-12-18T00:10:26;36.10;;;19.65;;
27794;SDS011;15176;50.844;4.412;2022-12-18T00:12:52;38.13;;;21.00;;
27794;SDS011;15176;50.844;4.412;2022-12-18T00:15:18;43.80;;;21.77;;
27794;SDS011;15176;50.844;4.412;2022-12-18T00:17:44;43.30;;;22.85;;
27794;SDS011;15176;50.844;4.412;2022-12-18T00:20:10;43.47;;;23.15;;
27794;SDS011;15176;50.844;4.412;2022-12-18T00:22:36;30.25;;;16.77;;
27794;SDS011;15176;50.844;4.412;2022-12-18T00:25:01;38.80;;;19.13;;
27794;SDS011;15176;50.844;4.412;2022-12-18T00:27:27;38.28;;;21.08;;
27794;SDS011;15176;50.844;4.412;2022-12-18T00:29:53;29.98;;;15.27;;
27794;SDS011;15176;50.844;4.412;2022-12-18T00:32:19;35.80;;;20.13;;
27794;SDS011;15176;50.844;4.412;2022-12-18T00:34:44;27.08;;;15.48;;
27794;SDS011;15176;50.844;4.412;2022-12-18T00:37:10;27.77;;;15.18;;
27794;SDS011;15176;50.844;4.412;2022-12-18T00:39:36;31.17;;;16.63;;
27794;SDS011;15176;50.844;4.412;2022-12-18T00:42:02;35.08;;;17.60;;
27794;SDS011;15176;50.844;4.412;2022-12-18T00:44:47;29.88;;;15.35;;
27794;SDS011;15176;50.844;4.412;2022-12-18T00:47:13;21.10;;;11.90;;
27794;SDS011;15176;50.844;4.412;2022-12-18T00:49:38;24.67;;;12.63;;
27794;SDS011;15176;50.844;4.412;2022-12-18T00:52:04;25.42;;;13.23;;
27794;SDS011;15176;50.844;4.412;2022-12-18T00:54:30;23.80;;;11.75;;
27794;SDS011;15176;50.844;4.412;2022-12-18T00:56:55;22.23;;;12.23;;
27794;SDS011;15176;50.844;4.412;2022-12-18T00:59:21;19.25;;;10.88;;
27794;SDS011;15176;50.844;4.412;2022-12-18T01:01:47;22.77;;;12.27;;
27794;SDS011;15176;50.844;4.412;2022-12-18T01:04:12;22.17;;;11.50;;
27794;SDS011;15176;50.844;4.412;2022-12-18T01:06:38;20.10;;;10.48;;
27794;SDS011;15176;50.844;4.412;2022-12-18T01:09:05;20.50;;;10.52;;
27794;SDS011;15176;50.844;4.412;2022-12-18T01:11:30;22.58;;;11.80;;
27794;SDS011;15176;50.844;4.412;2022-12-18T01:13:56;24.45;;;12.38;;
27794;SDS011;15176;50.844;4.412;2022-12-18T01:16:25;20.80;;;11.43;;
27794;SDS011;15176;50.844;4.412;2022-12-18T01:18:51;18.52;;;9.57;;
27794;SDS011;15176;50.844;4.412;2022-12-18T01:21:19;19.52;;;10.50;;
27794;SDS011;15176;50.844;4.412;2022-12-18T01:23:45;20.33;;;11.90;;
27794;SDS011;15176;50.844;4.412;2022-12-18T01:26:12;22.02;;;11.00;;
27794;SDS011;15176;50.844;4.412;2022-12-18T01:28:42;20.25;;;10.95;;
27794;SDS011;15176;50.844;4.412;2022-12-18T01:31:11;18.92;;;10.70;;
27794;SDS011;15176;50.844;4.412;2022-12-18T01:33:41;22.52;;;10.70;;
27794;SDS011;15176;50.844;4.412;2022-12-18T01:36:08;19.85;;;10.30;;
27794;SDS011;15176;50.844;4.412;2022-12-18T01:38:39;18.15;;;9.93;;
27794;SDS011;15176;50.844;4.412;2022-12-18T01:41:04;20.00;;;11.00;;
27794;SDS011;15176;50.844;4.412;2022-12-18T01:43:47;18.92;;;11.05;;
27794;SDS011;15176;50.844;4.412;2022-12-18T01:46:19;19.77;;;10.75;;
27794;SDS011;15176;50.844;4.412;2022-12-18T01:48:51;19.65;;;10.40;;
27794;SDS011;15176;50.844;4.412;2022-12-18T01:51:20;21.23;;;11.50;;
27794;SDS011;15176;50.844;4.412;2022-12-18T01:53:46;22.50;;;11.73;;
27794;SDS011;15176;50.844;4.412;2022-12-18T01:56:13;19.67;;;11.23;;
27794;SDS011;15176;50.844;4.412;2022-12-18T01:59:03;23.73;;;12.70;;
27794;SDS011;15176;50.844;4.412;2022-12-18T02:01:31;20.42;;;10.98;;
27794;SDS011;15176;50.844;4.412;2022-12-18T02:04:16;22.83;;;11.93;;
27794;SDS011;15176;50.844;4.412;2022-12-18T02:06:48;22.60;;;11.52;;
27794;SDS011;15176;50.844;4.412;2022-12-18T02:09:21;23.67;;;11.65;;
27794;SDS011;15176;50.844;4.412;2022-12-18T02:12:00;18.63;;;9.95;;
27794;SDS011;15176;50.844;4.412;2022-12-18T02:17:37;19.88;;;10.55;;
27794;SDS011;15176;50.844;4.412;2022-12-18T02:25:19;26.25;;;12.93;;
27794;SDS011;15176;50.844;4.412;2022-12-18T02:27:59;29.05;;;14.07;;
27794;SDS011;15176;50.844;4.412;2022-12-18T02:30:27;30.20;;;13.95;;
27794;SDS011;15176;50.844;4.412;2022-12-18T02:32:56;25.02;;;12.45;;
27794;SDS011;15176;50.844;4.412;2022-12-18T02:35:24;25.42;;;13.00;;
27794;SDS011;15176;50.844;4.412;2022-12-18T02:37:54;24.73;;;13.38;;
27794;SDS011;15176;50.844;4.412;2022-12-18T02:40:20;26.52;;;12.75;;
27794;SDS011;15176;50.844;4.412;2022-12-18T02:42:48;24.58;;;13.00;;
27794;SDS011;15176;50.844;4.412;2022-12-18T02:45:14;26.55;;;12.88;;
27794;SDS011;15176;50.844;4.412;2022-12-18T02:47:40;24.15;;;13.07;;
27794;SDS011;15176;50.844;4.412;2022-12-18T03:01:34;24.98;;;12.23;;
27794;SDS011;15176;50.844;4.412;2022-12-18T03:04:19;27.92;;;13.27;;
27794;SDS011;15176;50.844;4.412;2022-12-18T03:06:55;25.52;;;13.38;;
27794;SDS011;15176;50.844;4.412;2022-12-18T03:09:30;26.83;;;13.63;;
27794;SDS011;15176;50.844;4.412;2022-12-18T03:12:02;27.27;;;13.27;;
27794;SDS011;15176;50.844;4.412;2022-12-18T03:15:00;22.52;;;12.18;;
27794;SDS011;15176;50.844;4.412;2022-12-18T03:17:38;21.10;;;11.45;;
27794;SDS011;15176;50.844;4.412;2022-12-18T03:20:08;25.00;;;12.55;;
27794;SDS011;15176;50.844;4.412;2022-12-18T03:22:38;23.52;;;11.95;;
27794;SDS011;15176;50.844;4.412;2022-12-18T03:25:07;23.63;;;12.35;;
27794;SDS011;15176;50.844;4.412;2022-12-18T03:27:36;21.42;;;11.52;;
27794;SDS011;15176;50.844;4.412;2022-12-18T03:30:08;23.85;;;11.57;;
27794;SDS011;15176;50.844;4.412;2022-12-18T03:32:42;24.38;;;11.80;;
27794;SDS011;15176;50.844;4.412;2022-12-18T03:35:13;20.60;;;11.35;;
27794;SDS011;15176;50.844;4.412;2022-12-18T03:37:42;22.13;;;12.00;;
27794;SDS011;15176;50.844;4.412;2022-12-18T03:40:08;19.58;;;10.40;;
27794;SDS011;15176;50.844;4.412;2022-12-18T03:45:11;19.67;;;10.38;;
27794;SDS011;15176;50.844;4.412;2022-12-18T03:48:02;19.95;;;9.77;;
27794;SDS011;15176;50.844;4.412;2022-12-18T03:53:18;19.08;;;9.35;;
27794;SDS011;15176;50.844;4.412;2022-12-18T03:56:01;19.45;;;9.40;;
27794;SDS011;15176;50.844;4.412;2022-12-18T03:58:29;18.85;;;10.38;;
27794;SDS011;15176;50.844;4.412;2022-12-18T04:00:58;19.10;;;10.15;;
27794;SDS011;15176;50.844;4.412;2022-12-18T04:03:28;18.60;;;9.85;;
27794;SDS011;15176;50.844;4.412;2022-12-18T04:05:57;18.13;;;8.95;;
27794;SDS011;15176;50.844;4.412;2022-12-18T04:08:25;19.38;;;10.35;;
27794;SDS011;15176;50.844;4.412;2022-12-18T04:10:51;18.02;;;9.48;;
27794;SDS011;15176;50.844;4.412;2022-12-18T04:13:30;17.30;;;9.18;;
27794;SDS011;15176;50.844;4.412;2022-12-18T04:15:59;18.42;;;9.75;;
27794;SDS011;15176;50.844;4.412;2022-12-18T04:18:25;20.85;;;9.77;;
27794;SDS011;15176;50.844;4.412;2022-12-18T04:20:51;18.25;;;9.45;;
27794;SDS011;15176;50.844;4.412;2022-12-18T04:23:17;17.15;;;9.18;;
27794;SDS011;15176;50.844;4.412;2022-12-18T04:25:42;15.30;;;8.98;;
27794;SDS011;15176;50.844;4.412;2022-12-18T04:28:08;18.55;;;9.85;;
27794;SDS011;15176;50.844;4.412;2022-12-18T04:30:34;18.88;;;10.02;;
27794;SDS011;15176;50.844;4.412;2022-12-18T04:32:59;18.33;;;8.85;;
27794;SDS011;15176;50.844;4.412;2022-12-18T04:35:25;17.45;;;9.27;;
27794;SDS011;15176;50.844;4.412;2022-12-18T04:37:51;19.30;;;10.10;;
27794;SDS011;15176;50.844;4.412;2022-12-18T04:40:17;21.13;;;10.45;;
27794;SDS011;15176;50.844;4.412;2022-12-18T04:42:42;16.80;;;9.68;;
27794;SDS011;15176;50.844;4.412;2022-12-18T04:45:08;16.23;;;9.45;;
27794;SDS011;15176;50.844;4.412;2022-12-18T04:47:34;17.10;;;9.18;;
27794;SDS011;15176;50.844;4.412;2022-12-18T04:50:00;18.80;;;9.90;;
27794;SDS011;15176;50.844;4.412;2022-12-18T04:52:25;16.15;;;8.75;;
27794;SDS011;15176;50.844;4.412;2022-12-18T04:54:51;19.55;;;9.23;;
27794;SDS011;15176;50.844;4.412;2022-12-18T04:57:16;16.40;;;8.90;;
27794;SDS011;15176;50.844;4.412;2022-12-18T04:59:45;18.63;;;10.25;;
27794;SDS011;15176;50.844;4.412;2022-12-18T05:02:10;16.65;;;9.00;;
27794;SDS011;15176;50.844;4.412;2022-12-18T05:04:36;19.17;;;9.68;;
27794;SDS011;15176;50.844;4.412;2022-12-18T05:07:02;18.60;;;9.60;;
27794;SDS011;15176;50.844;4.412;2022-12-18T05:09:27;17.58;;;9.38;;
27794;SDS011;15176;50.844;4.412;2022-12-18T05:11:53;18.25;;;9.15;;
27794;SDS011;15176;50.844;4.412;2022-12-18T05:14:19;17.35;;;9.02;;
27794;SDS011;15176;50.844;4.412;2022-12-18T05:16:45;17.30;;;9.43;;
27794;SDS011;15176;50.844;4.412;2022-12-18T05:19:11;18.25;;;9.27;;
27794;SDS011;15176;50.844;4.412;2022-12-18T05:21:36;18.33;;;9.48;;
27794;SDS011;15176;50.844;4.412;2022-12-18T05:24:02;14.98;;;7.82;;
27794;SDS011;15176;50.844;4.412;2022-12-18T05:26:28;16.70;;;8.63;;
27794;SDS011;15176;50.844;4.412;2022-12-18T05:28:57;20.17;;;9.60;;
27794;SDS011;15176;50.844;4.412;2022-12-18T05:31:22;17.20;;;9.02;;
27794;SDS011;15176;50.844;4.412;2022-12-18T05:33:48;16.85;;;8.75;;
27794;SDS011;15176;50.844;4.412;2022-12-18T05:36:14;12.95;;;7.00;;
27794;SDS011;15176;50.844;4.412;2022-12-18T05:38:39;17.23;;;8.40;;
27794;SDS011;15176;50.844;4.412;2022-12-18T05:41:06;15.13;;;8.48;;
27794;SDS011;15176;50.844;4.412;2022-12-18T05:43:33;15.52;;;8.82;;
27794;SDS011;15176;50.844;4.412;2022-12-18T05:46:05;18.50;;;8.43;;
27794;SDS011;15176;50.844;4.412;2022-12-18T05:48:32;14.40;;;8.00;;
27794;SDS011;15176;50.844;4.412;2022-12-18T05:51:03;14.18;;;7.68;;
27794;SDS011;15176;50.844;4.412;2022-12-18T05:53:30;13.77;;;7.90;;
27794;SDS011;15176;50.844;4.412;2022-12-18T05:55:59;16.38;;;8.15;;
27794;SDS011;15176;50.844;4.412;2022-12-18T05:58:26;17.35;;;8.10;;
27794;SDS011;15176;50.844;4.412;2022-12-18T06:00:52;15.98;;;7.88;;
27794;SDS011;15176;50.844;4.412;2022-12-18T06:03:18;16.73;;;8.35;;
27794;SDS011;15176;50.844;4.412;2022-12-18T06:05:44;17.75;;;9.30;;
27794;SDS011;15176;50.844;4.412;2022-12-18T06:08:11;14.68;;;8.00;;
27794;SDS011;15176;50.844;4.412;2022-12-18T06:10:37;16.13;;;8.43;;
27794;SDS011;15176;50.844;4.412;2022-12-18T06:13:06;16.95;;;8.18;;
27794;SDS011;15176;50.844;4.412;2022-12-18T06:15:32;13.82;;;8.23;;
27794;SDS011;15176;50.844;4.412;2022-12-18T06:18:00;16.08;;;8.75;;
27794;SDS011;15176;50.844;4.412;2022-12-18T06:20:26;14.77;;;7.55;;
27794;SDS011;15176;50.844;4.412;2022-12-18T06:22:57;19.92;;;8.88;;
27794;SDS011;15176;50.844;4.412;2022-12-18T06:25:23;16.17;;;8.30;;
27794;SDS011;15176;50.844;4.412;2022-12-18T06:27:48;16.52;;;7.93;;
27794;SDS011;15176;50.844;4.412;2022-12-18T06:30:14;13.65;;;7.30;;
27794;SDS011;15176;50.844;4.412;2022-12-18T06:32:40;13.98;;;7.55;;
27794;SDS011;15176;50.844;4.412;2022-12-18T06:35:06;15.63;;;8.27;;
27794;SDS011;15176;50.844;4.412;2022-12-18T06:37:32;19.90;;;9.32;;
27794;SDS011;15176;50.844;4.412;2022-12-18T06:39:58;9.57;;;4.90;;
27794;SDS011;15176;50.844;4.412;2022-12-18T06:42:25;10.98;;;5.68;;
27794;SDS011;15176;50.844;4.412;2022-12-18T06:44:51;9.40;;;5.10;;
27794;SDS011;15176;50.844;4.412;2022-12-18T06:47:17;9.88;;;5.47;;
27794;SDS011;15176;50.844;4.412;2022-12-18T06:49:43;10.85;;;5.68;;
27794;SDS011;15176;50.844;4.412;2022-12-18T06:52:09;12.85;;;6.32;;
27794;SDS011;15176;50.844;4.412;2022-12-18T06:54:35;12.98;;;6.32;;
27794;SDS011;15176;50.844;4.412;2022-12-18T06:57:00;11.95;;;6.75;;
27794;SDS011;15176;50.844;4.412;2022-12-18T06:59:26;15.18;;;6.95;;
27794;SDS011;15176;50.844;4.412;2022-12-18T07:01:52;12.45;;;6.45;;
27794;SDS011;15176;50.844;4.412;2022-12-18T07:04:17;11.98;;;6.38;;
27794;SDS011;15176;50.844;4.412;2022-12-18T07:06:44;10.70;;;5.93;;
27794;SDS011;15176;50.844;4.412;2022-12-18T07:09:10;12.75;;;5.88;;
27794;SDS011;15176;50.844;4.412;2022-12-18T07:11:35;14.73;;;6.35;;
27794;SDS011;15176;50.844;4.412;2022-12-18T07:14:01;12.65;;;6.55;;
27794;SDS011;15176;50.844;4.412;2022-12-18T07:16:27;12.93;;;5.90;;
27794;SDS011;15176;50.844;4.412;2022-12-18T07:18:55;12.18;;;5.80;;
27794;SDS011;15176;50.844;4.412;2022-12-18T07:21:21;10.90;;;5.57;;
27794;SDS011;15176;50.844;4.412;2022-12-18T07:23:48;11.68;;;5.28;;
27794;SDS011;15176;50.844;4.412;2022-12-18T07:26:16;14.25;;;6.25;;
27794;SDS011;15176;50.844;4.412;2022-12-18T07:28:43;11.43;;;5.75;;
27794;SDS011;15176;50.844;4.412;2022-12-18T07:31:13;11.57;;;5.95;;
27794;SDS011;15176;50.844;4.412;2022-12-18T07:33:41;12.00;;;6.18;;
27794;SDS011;15176;50.844;4.412;2022-12-18T07:36:07;10.65;;;4.80;;
27794;SDS011;15176;50.844;4.412;2022-12-18T07:38:34;12.20;;;5.65;;
27794;SDS011;15176;50.844;4.412;2022-12-18T07:41:01;10.85;;;5.10;;
27794;SDS011;15176;50.844;4.412;2022-12-18T07:43:33;13.07;;;5.65;;
27794;SDS011;15176;50.844;4.412;2022-12-18T07:45:59;11.00;;;6.03;;
27794;SDS011;15176;50.844;4.412;2022-12-18T07:48:25;10.32;;;5.38;;
27794;SDS011;15176;50.844;4.412;2022-12-18T07:50:51;10.30;;;4.85;;
27794;SDS011;15176;50.844;4.412;2022-12-18T07:53:17;12.65;;;6.07;;
27794;SDS011;15176;50.844;4.412;2022-12-18T07:55:42;10.82;;;5.85;;
27794;SDS011;15176;50.844;4.412;2022-12-18T07:58:08;11.40;;;5.07;;
27794;SDS011;15176;50.844;4.412;2022-12-18T08:00:36;10.45;;;5.10;;
27794;SDS011;15176;50.844;4.412;2022-12-18T08:03:01;9.68;;;4.30;;
27794;SDS011;15176;50.844;4.412;2022-12-18T08:05:27;7.50;;;4.20;;
27794;SDS011;15176;50.844;4.412;2022-12-18T08:07:53;10.25;;;4.65;;
27794;SDS011;15176;50.844;4.412;2022-12-18T08:10:19;8.70;;;4.60;;
27794;SDS011;15176;50.844;4.412;2022-12-18T08:12:45;9.95;;;4.85;;
27794;SDS011;15176;50.844;4.412;2022-12-18T08:15:13;13.82;;;5.00;;
27794;SDS011;15176;50.844;4.412;2022-12-18T08:17:39;10.98;;;5.30;;
27794;SDS011;15176;50.844;4.412;2022-12-18T08:20:05;8.05;;;4.45;;
27794;SDS011;15176;50.844;4.412;2022-12-18T08:22:33;7.25;;;3.95;;
27794;SDS011;15176;50.844;4.412;2022-12-18T08:25:00;9.68;;;4.63;;
27794;SDS011;15176;50.844;4.412;2022-12-18T08:27:26;12.60;;;5.00;;
27794;SDS011;15176;50.844;4.412;2022-12-18T08:29:52;9.55;;;4.75;;
27794;SDS011;15176;50.844;4.412;2022-12-18T08:32:17;9.70;;;4.97;;
27794;SDS011;15176;50.844;4.412;2022-12-18T08:34:43;10.18;;;4.80;;
27794;SDS011;15176;50.844;4.412;2022-12-18T08:37:09;10.57;;;5.30;;
27794;SDS011;15176;50.844;4.412;2022-12-18T08:39:35;9.15;;;4.25;;
27794;SDS011;15176;50.844;4.412;2022-12-18T08:42:00;9.77;;;4.55;;
27794;SDS011;15176;50.844;4.412;2022-12-18T08:44:45;10.80;;;5.95;;
27794;SDS011;15176;50.844;4.412;2022-12-18T08:47:12;11.85;;;5.38;;
27794;SDS011;15176;50.844;4.412;2022-12-18T08:49:37;10.88;;;5.72;;
27794;SDS011;15176;50.844;4.412;2022-12-18T08:52:03;12.50;;;6.88;;
27794;SDS011;15176;50.844;4.412;2022-12-18T08:54:30;12.77;;;6.93;;
27794;SDS011;15176;50.844;4.412;2022-12-18T08:56:57;9.45;;;5.18;;
27794;SDS011;15176;50.844;4.412;2022-12-18T08:59:23;11.07;;;5.63;;
27794;SDS011;15176;50.844;4.412;2022-12-18T09:01:48;10.48;;;5.32;;
27794;SDS011;15176;50.844;4.412;2022-12-18T09:04:14;11.45;;;5.20;;
27794;SDS011;15176;50.844;4.412;2022-12-18T09:06:40;11.60;;;5.68;;
27794;SDS011;15176;50.844;4.412;2022-12-18T09:09:06;10.88;;;5.57;;
27794;SDS011;15176;50.844;4.412;2022-12-18T09:11:32;11.18;;;5.85;;
27794;SDS011;15176;50.844;4.412;2022-12-18T09:13:59;11.77;;;6.57;;
27794;SDS011;15176;50.844;4.412;2022-12-18T09:16:25;9.27;;;4.80;;
27794;SDS011;15176;50.844;4.412;2022-12-18T09:18:56;12.52;;;6.18;;
27794;SDS011;15176;50.844;4.412;2022-12-18T09:21:27;10.98;;;5.75;;
27794;SDS011;15176;50.844;4.412;2022-12-18T09:23:54;10.90;;;6.40;;
27794;SDS011;15176;50.844;4.412;2022-12-18T09:26:21;12.00;;;5.40;;
27794;SDS011;15176;50.844;4.412;2022-12-18T09:28:48;13.23;;;6.68;;
27794;SDS011;15176;50.844;4.412;2022-12-18T09:31:14;11.52;;;5.80;;
27794;SDS011;15176;50.844;4.412;2022-12-18T09:33:41;10.57;;;5.68;;
27794;SDS011;15176;50.844;4.412;2022-12-18T09:36:08;12.82;;;6.50;;
27794;SDS011;15176;50.844;4.412;2022-12-18T09:38:37;12.38;;;6.43;;
27794;SDS011;15176;50.844;4.412;2022-12-18T09:43:55;11.63;;;5.68;;
27794;SDS011;15176;50.844;4.412;2022-12-18T09:46:26;19.52;;;6.90;;
27794;SDS011;15176;50.844;4.412;2022-12-18T09:49:00;10.55;;;5.47;;
27794;SDS011;15176;50.844;4.412;2022-12-18T09:51:30;12.73;;;6.65;;
27794;SDS011;15176;50.844;4.412;2022-12-18T09:54:05;13.57;;;7.97;;
27794;SDS011;15176;50.844;4.412;2022-12-18T09:56:38;12.27;;;6.47;;
27794;SDS011;15176;50.844;4.412;2022-12-18T09:59:09;10.48;;;5.10;;
27794;SDS011;15176;50.844;4.412;2022-12-18T10:01:44;14.57;;;7.47;;
27794;SDS011;15176;50.844;4.412;2022-12-18T10:04:09;14.23;;;7.53;;
27794;SDS011;15176;50.844;4.412;2022-12-18T10:09:45;13.88;;;6.90;;
27794;SDS011;15176;50.844;4.412;2022-12-18T10:12:36;15.13;;;8.27;;
27794;SDS011;15176;50.844;4.412;2022-12-18T10:17:49;13.43;;;6.85;;
27794;SDS011;15176;50.844;4.412;2022-12-18T10:20:33;12.52;;;6.82;;
27794;SDS011;15176;50.844;4.412;2022-12-18T10:23:18;16.15;;;7.60;;
27794;SDS011;15176;50.844;4.412;2022-12-18T10:28:19;14.77;;;8.07;;
27794;SDS011;15176;50.844;4.412;2022-12-18T10:30:46;18.80;;;7.53;;
27794;SDS011;15176;50.844;4.412;2022-12-18T10:33:19;17.38;;;8.38;;
27794;SDS011;15176;50.844;4.412;2022-12-18T10:35:47;18.73;;;10.43;;
27794;SDS011;15176;50.844;4.412;2022-12-18T10:40:57;15.27;;;7.65;;
27794;SDS011;15176;50.844;4.412;2022-12-18T10:43:34;16.70;;;9.77;;
27794;SDS011;15176;50.844;4.412;2022-12-18T10:51:21;20.50;;;9.57;;
27794;SDS011;15176;50.844;4.412;2022-12-18T10:53:51;14.55;;;7.78;;
27794;SDS011;15176;50.844;4.412;2022-12-18T10:56:38;19.67;;;8.93;;
27794;SDS011;15176;50.844;4.412;2022-12-18T10:59:05;18.00;;;7.50;;
27794;SDS011;15176;50.844;4.412;2022-12-18T11:04:19;17.00;;;9.50;;
27794;SDS011;15176;50.844;4.412;2022-12-18T11:06:56;17.00;;;9.18;;
27794;SDS011;15176;50.844;4.412;2022-12-18T11:09:28;16.52;;;9.57;;
27794;SDS011;15176;50.844;4.412;2022-12-18T11:11:57;19.80;;;10.93;;
27794;SDS011;15176;50.844;4.412;2022-12-18T11:14:46;17.35;;;9.75;;
27794;SDS011;15176;50.844;4.412;2022-12-18T11:17:18;18.63;;;10.40;;
27794;SDS011;15176;50.844;4.412;2022-12-18T11:19:45;17.67;;;8.98;;
27794;SDS011;15176;50.844;4.412;2022-12-18T11:22:20;16.25;;;8.18;;
27794;SDS011;15176;50.844;4.412;2022-12-18T11:25:02;15.95;;;8.63;;
27794;SDS011;15176;50.844;4.412;2022-12-18T11:27:47;15.55;;;8.68;;
27794;SDS011;15176;50.844;4.412;2022-12-18T11:30:32;16.42;;;7.30;;
27794;SDS011;15176;50.844;4.412;2022-12-18T11:33:32;20.08;;;9.98;;
27794;SDS011;15176;50.844;4.412;2022-12-18T11:35:52;13.45;;;8.05;;
27794;SDS011;15176;50.844;4.412;2022-12-18T11:38:29;15.43;;;8.05;;
27794;SDS011;15176;50.844;4.412;2022-12-18T11:41:23;12.80;;;7.15;;
27794;SDS011;15176;50.844;4.412;2022-12-18T11:44:24;16.58;;;8.68;;
27794;SDS011;15176;50.844;4.412;2022-12-18T11:47:03;19.95;;;11.18;;
27794;SDS011;15176;50.844;4.412;2022-12-18T11:49:51;14.30;;;7.85;;
27794;SDS011;15176;50.844;4.412;2022-12-18T11:52:24;17.80;;;9.57;;
27794;SDS011;15176;50.844;4.412;2022-12-18T11:54:55;12.55;;;6.93;;
27794;SDS011;15176;50.844;4.412;2022-12-18T11:57:36;13.25;;;7.70;;
27794;SDS011;15176;50.844;4.412;2022-12-18T12:00:15;15.30;;;8.77;;
27794;SDS011;15176;50.844;4.412;2022-12-18T12:08:44;17.20;;;10.15;;
27794;SDS011;15176;50.844;4.412;2022-12-18T12:16:59;17.38;;;9.10;;
27794;SDS011;15176;50.844;4.412;2022-12-18T12:22:53;17.65;;;9.60;;
27794;SDS011;15176;50.844;4.412;2022-12-18T12:25:48;17.45;;;8.65;;
27794;SDS011;15176;50.844;4.412;2022-12-18T12:39:28;20.98;;;9.90;;
27794;SDS011;15176;50.844;4.412;2022-12-18T12:41:59;19.40;;;10.13;;
27794;SDS011;15176;50.844;4.412;2022-12-18T12:44:49;20.00;;;10.68;;
27794;SDS011;15176;50.844;4.412;2022-12-18T12:47:20;16.83;;;9.30;;
27794;SDS011;15176;50.844;4.412;2022-12-18T12:49:50;20.20;;;10.55;;
27794;SDS011;15176;50.844;4.412;2022-12-18T12:52:19;16.83;;;9.07;;
27794;SDS011;15176;50.844;4.412;2022-12-18T12:54:53;19.00;;;9.70;;
27794;SDS011;15176;50.844;4.412;2022-12-18T12:57:30;23.40;;;10.70;;
27794;SDS011;15176;50.844;4.412;2022-12-18T13:02:46;17.23;;;9.15;;
27794;SDS011;15176;50.844;4.412;2022-12-18T13:08:31;19.77;;;10.10;;
27794;SDS011;15176;50.844;4.412;2022-12-18T13:14:28;19.92;;;10.55;;
27794;SDS011;15176;50.844;4.412;2022-12-18T13:19:47;22.35;;;11.32;;
27794;SDS011;15176;50.844;4.412;2022-12-18T13:22:29;22.83;;;11.25;;
27794;SDS011;15176;50.844;4.412;2022-12-18T13:24:59;25.60;;;13.63;;
27794;SDS011;15176;50.844;4.412;2022-12-18T13:27:54;36.88;;;18.77;;
27794;SDS011;15176;50.844;4.412;2022-12-18T13:38:32;27.08;;;14.75;;
27794;SDS011;15176;50.844;4.412;2022-12-18T13:43:53;21.17;;;11.00;;
27794;SDS011;15176;50.844;4.412;2022-12-18T13:46:24;20.95;;;11.15;;
27794;SDS011;15176;50.844;4.412;2022-12-18T13:48:58;20.48;;;10.55;;
27794;SDS011;15176;50.844;4.412;2022-12-18T13:51:32;27.40;;;13.40;;
27794;SDS011;15176;50.844;4.412;2022-12-18T13:54:00;23.35;;;11.60;;
27794;SDS011;15176;50.844;4.412;2022-12-18T13:56:32;27.63;;;13.57;;
27794;SDS011;15176;50.844;4.412;2022-12-18T13:59:08;26.05;;;13.32;;
27794;SDS011;15176;50.844;4.412;2022-12-18T14:01:45;24.35;;;12.20;;
27794;SDS011;15176;50.844;4.412;2022-12-18T14:04:29;28.85;;;14.52;;
27794;SDS011;15176;50.844;4.412;2022-12-18T14:09:34;25.08;;;13.07;;
27794;SDS011;15176;50.844;4.412;2022-12-18T14:12:02;23.80;;;13.07;;
27794;SDS011;15176;50.844;4.412;2022-12-18T14:14:48;24.45;;;12.02;;
27794;SDS011;15176;50.844;4.412;2022-12-18T14:17:17;25.17;;;12.07;;
27794;SDS011;15176;50.844;4.412;2022-12-18T14:19:44;25.33;;;12.32;;
27794;SDS011;15176;50.844;4.412;2022-12-18T14:22:22;20.55;;;10.77;;
27794;SDS011;15176;50.844;4.412;2022-12-18T14:27:42;29.63;;;14.38;;
27794;SDS011;15176;50.844;4.412;2022-12-18T14:33:09;27.58;;;13.98;;
27794;SDS011;15176;50.844;4.412;2022-12-18T14:35:38;28.48;;;13.75;;
27794;SDS011;15176;50.844;4.412;2022-12-18T14:38:26;31.33;;;15.63;;
27794;SDS011;15176;50.844;4.412;2022-12-18T14:43:23;29.05;;;15.77;;
27794;SDS011;15176;50.844;4.412;2022-12-18T14:45:50;29.10;;;15.57;;
27794;SDS011;15176;50.844;4.412;2022-12-18T14:53:35;30.67;;;14.82;;
27794;SDS011;15176;50.844;4.412;2022-12-18T14:56:16;23.17;;;10.50;;
27794;SDS011;15176;50.844;4.412;2022-12-18T14:58:54;29.45;;;15.82;;
27794;SDS011;15176;50.844;4.412;2022-12-18T15:07:04;30.80;;;15.48;;
27794;SDS011;15176;50.844;4.412;2022-12-18T15:09:34;26.70;;;12.82;;
27794;SDS011;15176;50.844;4.412;2022-12-18T15:12:00;25.92;;;12.82;;
27794;SDS011;15176;50.844;4.412;2022-12-18T15:14:31;32.15;;;14.30;;
27794;SDS011;15176;50.844;4.412;2022-12-18T15:17:05;35.05;;;16.98;;
27794;SDS011;15176;50.844;4.412;2022-12-18T15:19:42;32.30;;;16.17;;
27794;SDS011;15176;50.844;4.412;2022-12-18T15:22:17;37.72;;;17.17;;
27794;SDS011;15176;50.844;4.412;2022-12-18T15:24:43;38.13;;;16.27;;
27794;SDS011;15176;50.844;4.412;2022-12-18T15:32:35;31.83;;;14.55;;
27794;SDS011;15176;50.844;4.412;2022-12-18T15:37:42;28.75;;;14.15;;
27794;SDS011;15176;50.844;4.412;2022-12-18T15:40:11;35.85;;;16.17;;
27794;SDS011;15176;50.844;4.412;2022-12-18T15:42:41;32.85;;;15.13;;
27794;SDS011;15176;50.844;4.412;2022-12-18T15:45:26;26.30;;;13.05;;
27794;SDS011;15176;50.844;4.412;2022-12-18T15:47:52;24.70;;;12.25;;
27794;SDS011;15176;50.844;4.412;2022-12-18T15:50:17;27.65;;;13.85;;
27794;SDS011;15176;50.844;4.412;2022-12-18T15:52:44;27.73;;;13.68;;
27794;SDS011;15176;50.844;4.412;2022-12-18T15:55:15;26.33;;;13.05;;
27794;SDS011;15176;50.844;4.412;2022-12-18T15:58:01;27.55;;;14.48;;
27794;SDS011;15176;50.844;4.412;2022-12-18T16:00:28;30.13;;;14.27;;
27794;SDS011;15176;50.844;4.412;2022-12-18T16:02:53;25.70;;;13.05;;
27794;SDS011;15176;50.844;4.412;2022-12-18T16:05:20;27.85;;;13.82;;
27794;SDS011;15176;50.844;4.412;2022-12-18T16:07:49;29.20;;;14.68;;
27794;SDS011;15176;50.844;4.412;2022-12-18T16:10:15;27.70;;;14.30;;
27794;SDS011;15176;50.844;4.412;2022-12-18T16:12:41;32.10;;;15.57;;
27794;SDS011;15176;50.844;4.412;2022-12-18T16:15:07;21.35;;;10.75;;
27794;SDS011;15176;50.844;4.412;2022-12-18T16:17:36;29.48;;;13.43;;
27794;SDS011;15176;50.844;4.412;2022-12-18T16:20:02;27.45;;;13.85;;
27794;SDS011;15176;50.844;4.412;2022-12-18T16:22:28;25.67;;;13.23;;
27794;SDS011;15176;50.844;4.412;2022-12-18T16:24:55;24.25;;;12.48;;
27794;SDS011;15176;50.844;4.412;2022-12-18T16:27:22;25.75;;;13.48;;
27794;SDS011;15176;50.844;4.412;2022-12-18T16:29:49;28.10;;;13.88;;
27794;SDS011;15176;50.844;4.412;2022-12-18T16:32:16;25.85;;;12.25;;
27794;SDS011;15176;50.844;4.412;2022-12-18T16:34:45;20.77;;;10.95;;
27794;SDS011;15176;50.844;4.412;2022-12-18T16:37:11;32.55;;;15.65;;
27794;SDS011;15176;50.844;4.412;2022-12-18T16:39:38;23.35;;;11.95;;
27794;SDS011;15176;50.844;4.412;2022-12-18T16:42:06;25.88;;;13.23;;
27794;SDS011;15176;50.844;4.412;2022-12-18T16:44:42;24.52;;;12.27;;
27794;SDS011;15176;50.844;4.412;2022-12-18T16:47:08;23.65;;;12.10;;
27794;SDS011;15176;50.844;4.412;2022-12-18T16:49:34;31.85;;;14.23;;